sensor_id;sensor_type;location;lat;lon;timestamp;pressure;altitude;pressure_sealevel;temperature;humidity
20394;BME280;10356;50.544;9.642;2023-02-28T00:01:33;99414.03;;;-1.64;83.96
20394;BME280;10356;50.544;9.642;2023-02-28T00:03:59;99405.47;;;-1.62;84.42
20394;BME280;10356;50.544;9.642;2023-02-28T00:06:26;99404.53;;;-1.52;83.58
20394;BME280;10356;50.544;9.642;2023-02-28T00:08:55;99411.28;;;-1.49;84.06
20394;BME280;10356;50.544;9.642;2023-02-28T00:11:22;99399.22;;;-1.37;83.70
20394;BME280;10356;50.544;9.642;2023-02-28T00:13:48;99410.25;;;-1.32;83.50
20394;BME280;10356;50.544;9.642;2023-02-28T00:16:17;99412.81;;;-1.32;83.75
20394;BME280;10356;50.544;9.642;2023-02-28T00:18:44;99407.69;;;-1.32;83.38
20394;BME280;10356;50.544;9.642;2023-02-28T00:21:12;99400.94;;;-1.36;83.65
20394;BME280;10356;50.544;9.642;2023-02-28T00:23:39;99403.50;;;-1.36;83.85
20394;BME280;10356;50.544;9.642;2023-02-28T00:26:07;99402.53;;;-1.26;83.74
20394;BME280;10356;50.544;9.642;2023-02-28T00:28:33;99392.28;;;-1.26;83.67
20394;BME280;10356;50.544;9.642;2023-02-28T00:31:00;99405.00;;;-1.20;83.60
20394;BME280;10356;50.544;9.642;2023-02-28T00:33:26;99393.78;;;-1.08;82.79
20394;BME280;10356;50.544;9.642;2023-02-28T00:36:01;99403.06;;;-1.03;81.88
20394;BME280;10356;50.544;9.642;2023-02-28T00:38:28;99406.38;;;-0.95;81.51
20394;BME280;10356;50.544;9.642;2023-02-28T00:40:55;99401.31;;;-0.98;80.77
20394;BME280;10356;50.544;9.642;2023-02-28T00:43:23;99398.84;;;-1.04;80.64
20394;BME280;10356;50.544;9.642;2023-02-28T00:45:49;99398.00;;;-1.06;80.05
20394;BME280;10356;50.544;9.642;2023-02-28T00:48:16;99398.03;;;-1.07;80.49
20394;BME280;10356;50.544;9.642;2023-02-28T00:50:42;99402.38;;;-1.14;80.42
20394;BME280;10356;50.544;9.642;2023-02-28T00:53:09;99399.84;;;-1.17;80.97
20394;BME280;10356;50.544;9.642;2023-02-28T00:55:35;99400.88;;;-1.30;81.52
20394;BME280;10356;50.544;9.642;2023-02-28T00:58:02;99395.75;;;-1.31;81.52
20394;BME280;10356;50.544;9.642;2023-02-28T01:00:29;99395.69;;;-1.27;81.64
20394;BME280;10356;50.544;9.642;2023-02-28T01:02:56;99397.63;;;-1.44;81.74
20394;BME280;10356;50.544;9.642;2023-02-28T01:05:22;99398.53;;;-1.51;82.23
20394;BME280;10356;50.544;9.642;2023-02-28T01:07:49;99400.34;;;-1.60;83.28
20394;BME280;10356;50.544;9.642;2023-02-28T01:10:16;99403.78;;;-1.63;82.83
20394;BME280;10356;50.544;9.642;2023-02-28T01:12:42;99394.44;;;-1.64;82.57
20394;BME280;10356;50.544;9.642;2023-02-28T01:15:10;99396.22;;;-1.72;82.87
20394;BME280;10356;50.544;9.642;2023-02-28T01:17:38;99388.66;;;-1.83;83.07
20394;BME280;10356;50.544;9.642;2023-02-28T01:20:06;99398.72;;;-1.69;82.88
20394;BME280;10356;50.544;9.642;2023-02-28T01:22:34;99381.75;;;-1.73;82.84
20394;BME280;10356;50.544;9.642;2023-02-28T01:25:00;99392.75;;;-1.70;82.81
20394;BME280;10356;50.544;9.642;2023-02-28T01:27:27;99396.16;;;-1.66;83.14
20394;BME280;10356;50.544;9.642;2023-02-28T01:29:54;99391.13;;;-1.72;82.91
20394;BME280;10356;50.544;9.642;2023-02-28T01:32:20;99401.34;;;-1.72;82.65
20394;BME280;10356;50.544;9.642;2023-02-28T01:34:55;99399.63;;;-1.73;82.59
20394;BME280;10356;50.544;9.642;2023-02-28T01:37:21;99397.97;;;-1.77;82.11
20394;BME280;10356;50.544;9.642;2023-02-28T01:39:48;99386.19;;;-1.93;82.89
20394;BME280;10356;50.544;9.642;2023-02-28T01:42:15;99390.47;;;-1.92;82.06
20394;BME280;10356;50.544;9.642;2023-02-28T01:45:00;99397.28;;;-1.93;81.84
20394;BME280;10356;50.544;9.642;2023-02-28T01:47:29;99401.59;;;-1.99;82.67
20394;BME280;10356;50.544;9.642;2023-02-28T01:50:01;99382.97;;;-2.10;82.43
20394;BME280;10356;50.544;9.642;2023-02-28T01:52:28;99384.72;;;-2.15;82.73
20394;BME280;10356;50.544;9.642;2023-02-28T01:54:56;99386.44;;;-2.17;82.39
20394;BME280;10356;50.544;9.642;2023-02-28T01:57:29;99395.72;;;-2.09;82.06
20394;BME280;10356;50.544;9.642;2023-02-28T02:00:06;99391.56;;;-2.22;82.73
20394;BME280;10356;50.544;9.642;2023-02-28T02:02:34;99389.97;;;-2.30;83.20
20394;BME280;10356;50.544;9.642;2023-02-28T02:05:06;99389.16;;;-2.37;83.18
20394;BME280;10356;50.544;9.642;2023-02-28T02:07:35;99390.78;;;-2.30;82.98
20394;BME280;10356;50.544;9.642;2023-02-28T02:10:05;99389.97;;;-2.33;83.20
20394;BME280;10356;50.544;9.642;2023-02-28T02:12:54;99379.81;;;-2.39;83.88
20394;BME280;10356;50.544;9.642;2023-02-28T02:15:27;99371.34;;;-2.44;83.65
20394;BME280;10356;50.544;9.642;2023-02-28T02:17:57;99374.78;;;-2.48;84.49
20394;BME280;10356;50.544;9.642;2023-02-28T02:20:57;99373.91;;;-2.47;84.50
20394;BME280;10356;50.544;9.642;2023-02-28T02:23:52;99362.88;;;-2.46;84.75
20394;BME280;10356;50.544;9.642;2023-02-28T02:26:43;99368.72;;;-2.37;83.58
20394;BME280;10356;50.544;9.642;2023-02-28T02:29:28;99357.63;;;-2.28;83.70
20394;BME280;10356;50.544;9.642;2023-02-28T02:32:14;99355.03;;;-2.27;83.41
20394;BME280;10356;50.544;9.642;2023-02-28T02:35:00;99365.16;;;-2.16;82.39
20394;BME280;10356;50.544;9.642;2023-02-28T02:37:38;99360.94;;;-2.20;82.20
20394;BME280;10356;50.544;9.642;2023-02-28T02:40:11;99358.34;;;-2.17;82.31
20394;BME280;10356;50.544;9.642;2023-02-28T02:42:44;99358.44;;;-2.25;82.71
20394;BME280;10356;50.544;9.642;2023-02-28T02:45:17;99354.94;;;-2.18;82.36
20394;BME280;10356;50.544;9.642;2023-02-28T02:47:45;99361.72;;;-2.15;81.97
20394;BME280;10356;50.544;9.642;2023-02-28T02:50:17;99353.97;;;-2.03;81.64
20394;BME280;10356;50.544;9.642;2023-02-28T02:52:49;99359.97;;;-2.07;81.86
20394;BME280;10356;50.544;9.642;2023-02-28T02:55:18;99359.16;;;-2.12;82.01
20394;BME280;10356;50.544;9.642;2023-02-28T02:57:48;99355.69;;;-2.05;82.23
20394;BME280;10356;50.544;9.642;2023-02-28T03:00:17;99358.94;;;-1.91;81.57
20394;BME280;10356;50.544;9.642;2023-02-28T03:02:48;99361.34;;;-1.76;80.25
20394;BME280;10356;50.544;9.642;2023-02-28T03:05:19;99357.16;;;-1.80;80.85
20394;BME280;10356;50.544;9.642;2023-02-28T03:07:47;99365.56;;;-1.72;80.57
20394;BME280;10356;50.544;9.642;2023-02-28T03:10:29;99365.53;;;-1.69;80.12
20394;BME280;10356;50.544;9.642;2023-02-28T03:15:53;99354.31;;;-1.56;79.53
20394;BME280;10356;50.544;9.642;2023-02-28T03:18:28;99360.31;;;-1.61;80.01
20394;BME280;10356;50.544;9.642;2023-02-28T03:21:04;99362.00;;;-1.59;79.62
20394;BME280;10356;50.544;9.642;2023-02-28T03:23:39;99360.19;;;-1.49;79.27
20394;BME280;10356;50.544;9.642;2023-02-28T03:26:13;99360.22;;;-1.51;79.65
20394;BME280;10356;50.544;9.642;2023-02-28T03:28:52;99360.22;;;-1.52;79.12
20394;BME280;10356;50.544;9.642;2023-02-28T03:31:26;99362.72;;;-1.49;79.07
20394;BME280;10356;50.544;9.642;2023-02-28T03:33:59;99359.47;;;-1.60;79.93
20394;BME280;10356;50.544;9.642;2023-02-28T03:36:32;99360.31;;;-1.60;80.29
20394;BME280;10356;50.544;9.642;2023-02-28T03:39:05;99356.03;;;-1.58;80.12
20394;BME280;10356;50.544;9.642;2023-02-28T03:41:37;99361.22;;;-1.65;80.81
20394;BME280;10356;50.544;9.642;2023-02-28T03:44:09;99368.06;;;-1.67;80.58
20394;BME280;10356;50.544;9.642;2023-02-28T03:46:44;99370.56;;;-1.63;79.93
20394;BME280;10356;50.544;9.642;2023-02-28T03:49:16;99363.78;;;-1.64;79.95
20394;BME280;10356;50.544;9.642;2023-02-28T03:51:46;99371.50;;;-1.72;80.52
20394;BME280;10356;50.544;9.642;2023-02-28T03:54:16;99368.13;;;-1.72;79.86
20394;BME280;10356;50.544;9.642;2023-02-28T03:56:48;99355.44;;;-1.81;80.51
20394;BME280;10356;50.544;9.642;2023-02-28T03:59:24;99354.66;;;-1.89;80.94
20394;BME280;10356;50.544;9.642;2023-02-28T04:01:53;99353.03;;;-1.95;81.44
20394;BME280;10356;50.544;9.642;2023-02-28T04:04:20;99359.69;;;-1.80;81.65
20394;BME280;10356;50.544;9.642;2023-02-28T04:06:51;99355.56;;;-1.93;81.49
20394;BME280;10356;50.544;9.642;2023-02-28T04:09:18;99355.50;;;-1.87;81.74
20394;BME280;10356;50.544;9.642;2023-02-28T04:11:46;99377.56;;;-1.80;81.56
20394;BME280;10356;50.544;9.642;2023-02-28T04:14:16;99366.41;;;-1.73;80.94
20394;BME280;10356;50.544;9.642;2023-02-28T04:16:43;99375.81;;;-1.75;80.74
20394;BME280;10356;50.544;9.642;2023-02-28T04:19:11;99378.38;;;-1.77;81.22
20394;BME280;10356;50.544;9.642;2023-02-28T04:21:39;99374.94;;;-1.73;80.39
20394;BME280;10356;50.544;9.642;2023-02-28T04:24:09;99375.75;;;-1.69;79.87
20394;BME280;10356;50.544;9.642;2023-02-28T04:26:40;99374.88;;;-1.66;79.89
20394;BME280;10356;50.544;9.642;2023-02-28T04:29:09;99374.06;;;-1.70;79.92
20394;BME280;10356;50.544;9.642;2023-02-28T04:31:36;99370.66;;;-1.71;80.08
20394;BME280;10356;50.544;9.642;2023-02-28T04:34:03;99377.44;;;-1.68;79.92
20394;BME280;10356;50.544;9.642;2023-02-28T04:36:29;99384.16;;;-1.61;79.99
20394;BME280;10356;50.544;9.642;2023-02-28T04:38:56;99385.03;;;-1.60;79.56
20394;BME280;10356;50.544;9.642;2023-02-28T04:41:24;99384.09;;;-1.55;79.13
20394;BME280;10356;50.544;9.642;2023-02-28T04:43:51;99379.03;;;-1.59;79.79
20394;BME280;10356;50.544;9.642;2023-02-28T04:46:18;99383.31;;;-1.61;80.08
20394;BME280;10356;50.544;9.642;2023-02-28T04:48:45;99385.81;;;-1.57;79.44
20394;BME280;10356;50.544;9.642;2023-02-28T04:51:13;99377.38;;;-1.62;80.06
20394;BME280;10356;50.544;9.642;2023-02-28T04:53:41;99378.22;;;-1.60;80.38
20394;BME280;10356;50.544;9.642;2023-02-28T04:56:11;99371.47;;;-1.68;80.59
20394;BME280;10356;50.544;9.642;2023-02-28T04:58:40;99374.91;;;-1.71;81.09
20394;BME280;10356;50.544;9.642;2023-02-28T05:01:17;99378.28;;;-1.67;81.50
20394;BME280;10356;50.544;9.642;2023-02-28T05:03:44;99391.06;;;-1.66;81.27
20394;BME280;10356;50.544;9.642;2023-02-28T05:06:11;99380.78;;;-1.63;81.32
20394;BME280;10356;50.544;9.642;2023-02-28T05:08:39;99382.59;;;-1.73;82.22
20394;BME280;10356;50.544;9.642;2023-02-28T05:11:07;99380.91;;;-1.72;82.28
20394;BME280;10356;50.544;9.642;2023-02-28T05:13:33;99390.25;;;-1.73;82.37
20394;BME280;10356;50.544;9.642;2023-02-28T05:16:02;99388.53;;;-1.71;82.74
20394;BME280;10356;50.544;9.642;2023-02-28T05:18:28;99384.28;;;-1.70;82.86
20394;BME280;10356;50.544;9.642;2023-02-28T05:20:55;99383.38;;;-1.66;82.84
20394;BME280;10356;50.544;9.642;2023-02-28T05:23:22;99389.38;;;-1.70;83.91
20394;BME280;10356;50.544;9.642;2023-02-28T05:25:49;99381.66;;;-1.65;83.15
20394;BME280;10356;50.544;9.642;2023-02-28T05:28:17;99380.81;;;-1.64;82.84
20394;BME280;10356;50.544;9.642;2023-02-28T05:30:44;99389.28;;;-1.61;83.27
20394;BME280;10356;50.544;9.642;2023-02-28T05:33:12;99379.81;;;-1.53;82.29
20394;BME280;10356;50.544;9.642;2023-02-28T05:35:39;99379.09;;;-1.62;82.43
20394;BME280;10356;50.544;9.642;2023-02-28T05:38:06;99389.28;;;-1.61;82.72
20394;BME280;10356;50.544;9.642;2023-02-28T05:40:32;99394.44;;;-1.64;81.90
20394;BME280;10356;50.544;9.642;2023-02-28T05:42:59;99394.50;;;-1.70;82.96
20394;BME280;10356;50.544;9.642;2023-02-28T05:45:26;99397.78;;;-1.59;82.25
20394;BME280;10356;50.544;9.642;2023-02-28T05:47:53;99396.16;;;-1.67;82.00
20394;BME280;10356;50.544;9.642;2023-02-28T05:50:21;99395.44;;;-1.79;82.74
20394;BME280;10356;50.544;9.642;2023-02-28T05:52:49;99382.75;;;-1.89;82.66
20394;BME280;10356;50.544;9.642;2023-02-28T05:55:16;99397.94;;;-1.76;83.01
20394;BME280;10356;50.544;9.642;2023-02-28T05:57:42;99401.34;;;-1.75;82.74
20394;BME280;10356;50.544;9.642;2023-02-28T06:00:10;99401.41;;;-1.81;82.96
20394;BME280;10356;50.544;9.642;2023-02-28T06:02:38;99398.09;;;-1.89;83.62
20394;BME280;10356;50.544;9.642;2023-02-28T06:05:08;99410.94;;;-1.98;84.86
20394;BME280;10356;50.544;9.642;2023-02-28T06:07:40;99410.00;;;-1.91;84.67
20394;BME280;10356;50.544;9.642;2023-02-28T06:10:07;99407.47;;;-1.93;85.43
20394;BME280;10356;50.544;9.642;2023-02-28T06:12:34;99413.38;;;-1.88;85.39
20394;BME280;10356;50.544;9.642;2023-02-28T06:15:01;99415.97;;;-1.89;85.67
20394;BME280;10356;50.544;9.642;2023-02-28T06:17:27;99410.00;;;-1.88;85.43
20394;BME280;10356;50.544;9.642;2023-02-28T06:19:54;99415.13;;;-1.91;85.80
20394;BME280;10356;50.544;9.642;2023-02-28T06:22:20;99419.44;;;-1.99;85.97
20394;BME280;10356;50.544;9.642;2023-02-28T06:24:48;99414.28;;;-1.93;85.62
20394;BME280;10356;50.544;9.642;2023-02-28T06:27:15;99418.50;;;-1.86;85.22
20394;BME280;10356;50.544;9.642;2023-02-28T06:29:41;99419.38;;;-1.89;85.38
20394;BME280;10356;50.544;9.642;2023-02-28T06:32:08;99429.63;;;-1.93;85.72
20394;BME280;10356;50.544;9.642;2023-02-28T06:34:35;99425.38;;;-1.94;85.79
20394;BME280;10356;50.544;9.642;2023-02-28T06:37:02;99426.16;;;-1.89;85.34
20394;BME280;10356;50.544;9.642;2023-02-28T06:39:28;99433.88;;;-1.92;85.69
20394;BME280;10356;50.544;9.642;2023-02-28T06:41:57;99428.75;;;-1.94;86.00
20394;BME280;10356;50.544;9.642;2023-02-28T06:44:23;99432.16;;;-1.93;85.69
20394;BME280;10356;50.544;9.642;2023-02-28T06:46:50;99431.31;;;-1.94;85.42
20394;BME280;10356;50.544;9.642;2023-02-28T06:49:17;99425.38;;;-1.94;85.78
20394;BME280;10356;50.544;9.642;2023-02-28T06:51:44;99431.31;;;-1.92;85.52
20394;BME280;10356;50.544;9.642;2023-02-28T06:54:11;99435.53;;;-1.88;85.39
20394;BME280;10356;50.544;9.642;2023-02-28T06:56:38;99431.34;;;-1.95;85.98
20394;BME280;10356;50.544;9.642;2023-02-28T06:59:06;99448.28;;;-1.87;85.36
20394;BME280;10356;50.544;9.642;2023-02-28T07:01:33;99437.16;;;-1.78;83.96
20394;BME280;10356;50.544;9.642;2023-02-28T07:04:00;99433.72;;;-1.74;84.48
20394;BME280;10356;50.544;9.642;2023-02-28T07:06:27;99442.97;;;-1.65;83.13
20394;BME280;10356;50.544;9.642;2023-02-28T07:08:54;99448.03;;;-1.61;82.48
20394;BME280;10356;50.544;9.642;2023-02-28T07:11:21;99448.06;;;-1.62;82.58
20394;BME280;10356;50.544;9.642;2023-02-28T07:13:50;99448.03;;;-1.59;82.43
20394;BME280;10356;50.544;9.642;2023-02-28T07:16:18;99440.28;;;-1.52;81.78
20394;BME280;10356;50.544;9.642;2023-02-28T07:18:45;99454.69;;;-1.42;80.85
20394;BME280;10356;50.544;9.642;2023-02-28T07:21:12;99449.59;;;-1.46;80.73
20394;BME280;10356;50.544;9.642;2023-02-28T07:23:38;99459.75;;;-1.40;81.03
20394;BME280;10356;50.544;9.642;2023-02-28T07:26:06;99463.94;;;-1.35;80.13
20394;BME280;10356;50.544;9.642;2023-02-28T07:28:33;99465.69;;;-1.37;79.67
20394;BME280;10356;50.544;9.642;2023-02-28T07:31:03;99464.78;;;-1.30;78.82
20394;BME280;10356;50.544;9.642;2023-02-28T07:33:31;99463.94;;;-1.32;79.05
20394;BME280;10356;50.544;9.642;2023-02-28T07:36:03;99462.16;;;-1.24;79.07
20394;BME280;10356;50.544;9.642;2023-02-28T07:38:30;99463.69;;;-1.11;79.08
20394;BME280;10356;50.544;9.642;2023-02-28T07:40:56;99461.00;;;-0.97;77.67
20394;BME280;10356;50.544;9.642;2023-02-28T07:43:23;99465.97;;;-0.88;75.97
20394;BME280;10356;50.544;9.642;2023-02-28T07:45:49;99457.47;;;-0.90;75.58
20394;BME280;10356;50.544;9.642;2023-02-28T07:48:16;99459.91;;;-0.79;73.44
20394;BME280;10356;50.544;9.642;2023-02-28T07:50:44;99465.63;;;-0.62;72.77
20394;BME280;10356;50.544;9.642;2023-02-28T07:53:13;99459.59;;;-0.55;72.16
20394;BME280;10356;50.544;9.642;2023-02-28T07:55:39;99463.66;;;-0.41;71.77
20394;BME280;10356;50.544;9.642;2023-02-28T07:58:06;99461.09;;;-0.42;70.92
20394;BME280;10356;50.544;9.642;2023-02-28T08:00:32;99463.59;;;-0.38;69.79
20394;BME280;10356;50.544;9.642;2023-02-28T08:02:59;99465.16;;;-0.28;69.39
20394;BME280;10356;50.544;9.642;2023-02-28T08:05:25;99461.72;;;-0.27;68.80
20394;BME280;10356;50.544;9.642;2023-02-28T08:07:53;99461.56;;;-0.18;68.40
20394;BME280;10356;50.544;9.642;2023-02-28T08:10:20;99462.38;;;-0.14;67.21
20394;BME280;10356;50.544;9.642;2023-02-28T08:12:49;99467.28;;;0.01;66.11
20394;BME280;10356;50.544;9.642;2023-02-28T08:15:16;99475.63;;;0.14;65.50
20394;BME280;10356;50.544;9.642;2023-02-28T08:17:43;99476.34;;;0.22;65.16
20394;BME280;10356;50.544;9.642;2023-02-28T08:20:10;99465.00;;;0.36;64.29
20394;BME280;10356;50.544;9.642;2023-02-28T08:22:37;99466.72;;;0.34;64.95
20394;BME280;10356;50.544;9.642;2023-02-28T08:25:06;99463.03;;;0.50;64.64
20394;BME280;10356;50.544;9.642;2023-02-28T08:27:32;99461.09;;;0.61;63.81
20394;BME280;10356;50.544;9.642;2023-02-28T08:29:59;99468.66;;;0.69;63.24
20394;BME280;10356;50.544;9.642;2023-02-28T08:32:26;99474.91;;;0.54;61.71
20394;BME280;10356;50.544;9.642;2023-02-28T08:34:52;99478.13;;;0.65;61.81
20394;BME280;10356;50.544;9.642;2023-02-28T08:37:19;99457.78;;;0.56;60.26
20394;BME280;10356;50.544;9.642;2023-02-28T08:39:47;99467.00;;;0.65;59.85
20394;BME280;10356;50.544;9.642;2023-02-28T08:42:15;99463.59;;;0.66;59.71
20394;BME280;10356;50.544;9.642;2023-02-28T08:44:41;99466.53;;;0.91;59.12
20394;BME280;10356;50.544;9.642;2023-02-28T08:47:08;99469.03;;;0.94;56.96
20394;BME280;10356;50.544;9.642;2023-02-28T08:49:36;99454.44;;;0.96;56.04
20394;BME280;10356;50.544;9.642;2023-02-28T08:52:02;99451.59;;;1.11;56.97
20394;BME280;10356;50.544;9.642;2023-02-28T08:54:29;99459.00;;;1.24;55.62
20394;BME280;10356;50.544;9.642;2023-02-28T08:56:57;99465.72;;;1.30;55.24
20394;BME280;10356;50.544;9.642;2023-02-28T08:59:25;99464.66;;;1.40;54.60
20394;BME280;10356;50.544;9.642;2023-02-28T09:01:52;99464.66;;;1.40;54.04
20394;BME280;10356;50.544;9.642;2023-02-28T09:04:19;99451.22;;;1.29;53.67
20394;BME280;10356;50.544;9.642;2023-02-28T09:06:45;99461.28;;;1.38;54.65
20394;BME280;10356;50.544;9.642;2023-02-28T09:09:13;99455.53;;;1.27;53.29
20394;BME280;10356;50.544;9.642;2023-02-28T09:11:40;99462.69;;;1.11;52.82
20394;BME280;10356;50.544;9.642;2023-02-28T09:14:07;99449.75;;;1.16;53.68
20394;BME280;10356;50.544;9.642;2023-02-28T09:16:35;99463.88;;;1.36;53.58
20394;BME280;10356;50.544;9.642;2023-02-28T09:19:02;99462.56;;;1.57;52.79
20394;BME280;10356;50.544;9.642;2023-02-28T09:21:29;99467.63;;;1.60;52.58
20394;BME280;10356;50.544;9.642;2023-02-28T09:23:55;99461.50;;;1.67;52.20
20394;BME280;10356;50.544;9.642;2023-02-28T09:26:23;99451.53;;;1.90;52.11
20394;BME280;10356;50.544;9.642;2023-02-28T09:28:51;99459.69;;;1.70;51.50
20394;BME280;10356;50.544;9.642;2023-02-28T09:31:20;99456.50;;;1.61;51.05
20394;BME280;10356;50.544;9.642;2023-02-28T09:33:50;99458.56;;;1.82;51.75
20394;BME280;10356;50.544;9.642;2023-02-28T09:36:17;99450.13;;;1.77;50.48
20394;BME280;10356;50.544;9.642;2023-02-28T09:38:44;99463.84;;;1.76;50.79
20394;BME280;10356;50.544;9.642;2023-02-28T09:41:14;99446.75;;;1.75;50.50
20394;BME280;10356;50.544;9.642;2023-02-28T09:43:44;99453.13;;;1.94;50.21
20394;BME280;10356;50.544;9.642;2023-02-28T09:46:28;99453.50;;;1.79;50.81
20394;BME280;10356;50.544;9.642;2023-02-28T09:48:59;99456.28;;;1.70;50.66
20394;BME280;10356;50.544;9.642;2023-02-28T09:51:33;99460.13;;;1.89;51.85
20394;BME280;10356;50.544;9.642;2023-02-28T09:54:01;99455.41;;;1.71;52.39
20394;BME280;10356;50.544;9.642;2023-02-28T09:56:31;99457.03;;;1.75;51.60
20394;BME280;10356;50.544;9.642;2023-02-28T09:59:01;99452.44;;;1.51;51.66
20394;BME280;10356;50.544;9.642;2023-02-28T10:01:36;99460.47;;;1.74;52.03
20394;BME280;10356;50.544;9.642;2023-02-28T10:04:14;99455.25;;;2.14;50.91
20394;BME280;10356;50.544;9.642;2023-02-28T10:06:46;99457.63;;;2.21;50.92
20394;BME280;10356;50.544;9.642;2023-02-28T10:09:17;99457.97;;;2.08;51.37
20394;BME280;10356;50.544;9.642;2023-02-28T10:11:48;99471.53;;;2.46;51.28
20394;BME280;10356;50.544;9.642;2023-02-28T10:14:19;99471.63;;;2.43;50.29
20394;BME280;10356;50.544;9.642;2023-02-28T10:16:48;99466.28;;;2.17;51.27
20394;BME280;10356;50.544;9.642;2023-02-28T10:19:22;99477.38;;;2.19;50.09
20394;BME280;10356;50.544;9.642;2023-02-28T10:21:56;99464.75;;;2.10;51.02
20394;BME280;10356;50.544;9.642;2023-02-28T10:24:32;99460.41;;;2.12;50.88
20394;BME280;10356;50.544;9.642;2023-02-28T10:27:00;99461.66;;;1.96;51.27
20394;BME280;10356;50.544;9.642;2023-02-28T10:29:31;99457.75;;;1.80;51.41
20394;BME280;10356;50.544;9.642;2023-02-28T10:32:01;99450.13;;;1.77;51.95
20394;BME280;10356;50.544;9.642;2023-02-28T10:34:30;99459.88;;;1.98;51.83
20394;BME280;10356;50.544;9.642;2023-02-28T10:36:58;99453.84;;;2.01;52.44
20394;BME280;10356;50.544;9.642;2023-02-28T10:39:38;99458.69;;;2.13;51.71
20394;BME280;10356;50.544;9.642;2023-02-28T10:42:19;99462.22;;;2.09;51.78
20394;BME280;10356;50.544;9.642;2023-02-28T10:44:47;99459.19;;;2.27;50.95
20394;BME280;10356;50.544;9.642;2023-02-28T10:47:15;99462.97;;;2.12;50.11
20394;BME280;10356;50.544;9.642;2023-02-28T10:49:49;99469.13;;;2.07;50.70
20394;BME280;10356;50.544;9.642;2023-02-28T10:52:33;99450.72;;;1.88;50.83
20394;BME280;10356;50.544;9.642;2023-02-28T10:55:19;99459.38;;;1.84;51.84
20394;BME280;10356;50.544;9.642;2023-02-28T10:57:48;99460.13;;;1.89;51.43
20394;BME280;10356;50.544;9.642;2023-02-28T11:00:17;99454.00;;;1.95;51.73
20394;BME280;10356;50.544;9.642;2023-02-28T11:02:47;99454.84;;;1.95;51.39
20394;BME280;10356;50.544;9.642;2023-02-28T11:05:36;99460.59;;;2.05;50.94
20394;BME280;10356;50.544;9.642;2023-02-28T11:08:06;99465.06;;;1.97;50.94
20394;BME280;10356;50.544;9.642;2023-02-28T11:10:37;99451.31;;;1.99;50.54
20394;BME280;10356;50.544;9.642;2023-02-28T11:13:05;99454.75;;;1.98;50.92
20394;BME280;10356;50.544;9.642;2023-02-28T11:15:33;99458.06;;;2.03;52.98
20394;BME280;10356;50.544;9.642;2023-02-28T11:18:12;99452.94;;;2.03;51.12
20394;BME280;10356;50.544;9.642;2023-02-28T11:20:48;99450.16;;;2.11;51.67
20394;BME280;10356;50.544;9.642;2023-02-28T11:23:16;99449.94;;;2.53;50.51
20394;BME280;10356;50.544;9.642;2023-02-28T11:25:47;99445.19;;;3.01;49.18
20394;BME280;10356;50.544;9.642;2023-02-28T11:28:26;99443.19;;;3.69;48.52
20394;BME280;10356;50.544;9.642;2023-02-28T11:31:05;99427.88;;;3.91;48.61
20394;BME280;10356;50.544;9.642;2023-02-28T11:33:40;99442.09;;;3.76;49.55
20394;BME280;10356;50.544;9.642;2023-02-28T11:36:13;99433.75;;;3.96;50.54
20394;BME280;10356;50.544;9.642;2023-02-28T11:38:41;99433.47;;;3.77;48.66
20394;BME280;10356;50.544;9.642;2023-02-28T11:41:21;99430.91;;;4.30;49.77
20394;BME280;10356;50.544;9.642;2023-02-28T11:44:03;99440.41;;;4.54;48.39
20394;BME280;10356;50.544;9.642;2023-02-28T11:46:39;99438.53;;;4.33;48.51
20394;BME280;10356;50.544;9.642;2023-02-28T11:49:20;99432.59;;;4.31;48.79
20394;BME280;10356;50.544;9.642;2023-02-28T11:51:56;99435.31;;;4.52;48.04
20394;BME280;10356;50.544;9.642;2023-02-28T11:57:33;99421.84;;;4.67;47.99
20394;BME280;10356;50.544;9.642;2023-02-28T12:00:13;99415.97;;;4.64;46.97
20394;BME280;10356;50.544;9.642;2023-02-28T12:02:55;99426.59;;;4.30;47.30
20394;BME280;10356;50.544;9.642;2023-02-28T12:05:30;99423.59;;;3.91;48.39
20394;BME280;10356;50.544;9.642;2023-02-28T12:08:14;99428.31;;;3.77;48.28
20394;BME280;10356;50.544;9.642;2023-02-28T12:10:57;99422.09;;;3.57;48.58
20394;BME280;10356;50.544;9.642;2023-02-28T12:13:37;99423.75;;;3.59;50.04
20394;BME280;10356;50.544;9.642;2023-02-28T12:19:23;99421.66;;;3.13;49.26
20394;BME280;10356;50.544;9.642;2023-02-28T12:22:03;99409.31;;;2.97;50.77
20394;BME280;10356;50.544;9.642;2023-02-28T12:24:47;99413.66;;;2.95;50.65
20394;BME280;10356;50.544;9.642;2023-02-28T12:27:22;99407.00;;;3.17;51.46
20394;BME280;10356;50.544;9.642;2023-02-28T12:29:51;99397.75;;;3.10;51.16
20394;BME280;10356;50.544;9.642;2023-02-28T12:32:27;99406.44;;;3.35;50.65
20394;BME280;10356;50.544;9.642;2023-02-28T12:35:02;99408.50;;;3.79;48.39
20394;BME280;10356;50.544;9.642;2023-02-28T12:37:34;99389.00;;;3.97;49.14
20394;BME280;10356;50.544;9.642;2023-02-28T12:40:11;99392.50;;;4.20;48.84
20394;BME280;10356;50.544;9.642;2023-02-28T12:42:45;99401.41;;;4.12;48.99
20394;BME280;10356;50.544;9.642;2023-02-28T12:45:21;99385.94;;;4.37;48.26
20394;BME280;10356;50.544;9.642;2023-02-28T12:47:52;99392.25;;;4.53;48.46
20394;BME280;10356;50.544;9.642;2023-02-28T12:50:19;99378.56;;;4.51;48.45
20394;BME280;10356;50.544;9.642;2023-02-28T12:52:52;99374.66;;;4.64;46.79
20394;BME280;10356;50.544;9.642;2023-02-28T12:55:31;99372.38;;;4.79;46.96
20394;BME280;10356;50.544;9.642;2023-02-28T12:58:10;99378.69;;;4.48;47.71
20394;BME280;10356;50.544;9.642;2023-02-28T13:01:02;99377.53;;;4.56;46.56
20394;BME280;10356;50.544;9.642;2023-02-28T13:03:57;99379.97;;;4.36;46.47
20394;BME280;10356;50.544;9.642;2023-02-28T13:06:51;99382.91;;;4.73;47.77
20394;BME280;10356;50.544;9.642;2023-02-28T13:09:23;99375.09;;;4.75;46.68
20394;BME280;10356;50.544;9.642;2023-02-28T13:12:02;99357.22;;;4.70;45.66
20394;BME280;10356;50.544;9.642;2023-02-28T13:14:38;99369.09;;;4.26;46.11
20394;BME280;10356;50.544;9.642;2023-02-28T13:17:11;99365.00;;;4.46;47.89
20394;BME280;10356;50.544;9.642;2023-02-28T13:19:44;99361.84;;;4.38;46.93
20394;BME280;10356;50.544;9.642;2023-02-28T13:22:19;99360.75;;;4.68;46.90
20394;BME280;10356;50.544;9.642;2023-02-28T13:24:48;99364.78;;;4.52;46.16
20394;BME280;10356;50.544;9.642;2023-02-28T13:33:33;99358.47;;;4.59;46.64
20394;BME280;10356;50.544;9.642;2023-02-28T13:36:08;99354.59;;;4.72;45.77
20394;BME280;10356;50.544;9.642;2023-02-28T13:38:39;99352.88;;;4.71;46.22